Terminal Aerodrome Forecast
Issued by NWS

Home | Current Version | Previous Version | Text Only | Print | Product List | Glossary On
Versions: 1 2 3 4 5 6 7 8 9 10 11 12 13 14 15 16
000
FTUS45 KCYS 172300
TAFLAR
TAF
KLAR 172338Z 1800/1824 23014G24KT P6SM SKC
     FM180200 21011KT P6SM SKC
     FM181100 18013KT P6SM SKC
     FM181500 22018G30KT P6SM SKC
     FM181800 23024G35KT P6SM SCT080=

USA.gov is the U.S. government's official web portal to all federal, state and local government web resources and services.